sensor_id;sensor_type;location;lat;lon;timestamp;temperature;humidity
18868;DHT22;9563;49.240;9.088;2024-01-07T05:01:53;6.40;99.90
18868;DHT22;9563;49.240;9.088;2024-01-07T05:04:20;6.40;99.90
18868;DHT22;9563;49.240;9.088;2024-01-07T05:06:46;6.30;99.90
18868;DHT22;9563;49.240;9.088;2024-01-07T05:09:13;6.30;99.90
18868;DHT22;9563;49.240;9.088;2024-01-07T05:11:40;6.30;99.90
18868;DHT22;9563;49.240;9.088;2024-01-07T05:14:07;6.30;99.90
18868;DHT22;9563;49.240;9.088;2024-01-07T05:16:34;6.30;99.90
18868;DHT22;9563;49.240;9.088;2024-01-07T05:19:02;6.30;99.90
18868;DHT22;9563;49.240;9.088;2024-01-07T05:21:31;6.20;99.90
18868;DHT22;9563;49.240;9.088;2024-01-07T05:23:58;6.20;99.90
18868;DHT22;9563;49.240;9.088;2024-01-07T05:26:25;6.20;99.90
18868;DHT22;9563;49.240;9.088;2024-01-07T05:28:51;6.20;99.90
18868;DHT22;9563;49.240;9.088;2024-01-07T05:31:18;6.10;99.90
18868;DHT22;9563;49.240;9.088;2024-01-07T05:33:45;6.10;99.90
18868;DHT22;9563;49.240;9.088;2024-01-07T05:36:14;6.00;99.90
18868;DHT22;9563;49.240;9.088;2024-01-07T05:38:42;6.00;99.90
18868;DHT22;9563;49.240;9.088;2024-01-07T05:41:08;6.00;99.90
18868;DHT22;9563;49.240;9.088;2024-01-07T05:43:36;6.00;99.90
18868;DHT22;9563;49.240;9.088;2024-01-07T05:46:03;6.00;99.90
18868;DHT22;9563;49.240;9.088;2024-01-07T05:48:41;5.90;99.90
18868;DHT22;9563;49.240;9.088;2024-01-07T05:51:08;6.00;99.90
18868;DHT22;9563;49.240;9.088;2024-01-07T05:53:37;5.90;99.90
18868;DHT22;9563;49.240;9.088;2024-01-07T05:56:04;5.90;99.90
18868;DHT22;9563;49.240;9.088;2024-01-07T05:58:31;5.90;99.90
18868;DHT22;9563;49.240;9.088;2024-01-07T06:00:58;5.90;99.90
18868;DHT22;9563;49.240;9.088;2024-01-07T06:03:25;5.90;99.90
18868;DHT22;9563;49.240;9.088;2024-01-07T06:05:53;5.90;99.90
18868;DHT22;9563;49.240;9.088;2024-01-07T06:08:19;6.00;99.90
18868;DHT22;9563;49.240;9.088;2024-01-07T06:10:48;6.00;99.90
18868;DHT22;9563;49.240;9.088;2024-01-07T06:13:15;6.00;99.90
18868;DHT22;9563;49.240;9.088;2024-01-07T06:15:41;6.00;99.90
18868;DHT22;9563;49.240;9.088;2024-01-07T06:18:08;6.00;99.90
18868;DHT22;9563;49.240;9.088;2024-01-07T06:20:36;6.00;99.90
18868;DHT22;9563;49.240;9.088;2024-01-07T06:23:03;6.00;99.90
18868;DHT22;9563;49.240;9.088;2024-01-07T06:25:29;6.00;99.90
18868;DHT22;9563;49.240;9.088;2024-01-07T06:27:58;6.00;99.90
18868;DHT22;9563;49.240;9.088;2024-01-07T06:30:25;6.00;99.90
18868;DHT22;9563;49.240;9.088;2024-01-07T06:32:52;5.90;99.90
18868;DHT22;9563;49.240;9.088;2024-01-07T06:35:19;6.00;99.90
18868;DHT22;9563;49.240;9.088;2024-01-07T06:37:46;6.00;99.90
18868;DHT22;9563;49.240;9.088;2024-01-07T06:40:13;5.90;99.90
18868;DHT22;9563;49.240;9.088;2024-01-07T06:42:40;5.90;99.90
18868;DHT22;9563;49.240;9.088;2024-01-07T06:45:11;5.90;99.90
18868;DHT22;9563;49.240;9.088;2024-01-07T06:47:37;5.90;99.90
18868;DHT22;9563;49.240;9.088;2024-01-07T06:50:05;5.80;99.90
18868;DHT22;9563;49.240;9.088;2024-01-07T06:52:32;5.90;99.90
18868;DHT22;9563;49.240;9.088;2024-01-07T06:54:59;6.00;99.90
18868;DHT22;9563;49.240;9.088;2024-01-07T06:57:26;6.00;99.90
18868;DHT22;9563;49.240;9.088;2024-01-07T06:59:53;6.00;99.90
18868;DHT22;9563;49.240;9.088;2024-01-07T07:02:21;6.00;99.90
18868;DHT22;9563;49.240;9.088;2024-01-07T07:04:48;5.90;99.90
18868;DHT22;9563;49.240;9.088;2024-01-07T07:07:17;5.90;99.90
18868;DHT22;9563;49.240;9.088;2024-01-07T07:09:44;5.90;99.90
18868;DHT22;9563;49.240;9.088;2024-01-07T07:12:15;5.90;99.90
18868;DHT22;9563;49.240;9.088;2024-01-07T07:14:45;5.90;99.90
18868;DHT22;9563;49.240;9.088;2024-01-07T07:17:13;5.90;99.90
18868;DHT22;9563;49.240;9.088;2024-01-07T07:19:41;5.90;99.90
18868;DHT22;9563;49.240;9.088;2024-01-07T07:22:08;5.90;99.90
18868;DHT22;9563;49.240;9.088;2024-01-07T07:24:35;5.90;99.90
18868;DHT22;9563;49.240;9.088;2024-01-07T07:27:01;5.90;99.90
18868;DHT22;9563;49.240;9.088;2024-01-07T07:29:29;5.80;99.90
18868;DHT22;9563;49.240;9.088;2024-01-07T07:31:55;5.80;99.90
18868;DHT22;9563;49.240;9.088;2024-01-07T07:34:22;5.80;99.90
18868;DHT22;9563;49.240;9.088;2024-01-07T07:36:51;5.90;99.90
18868;DHT22;9563;49.240;9.088;2024-01-07T07:39:18;5.90;99.90
18868;DHT22;9563;49.240;9.088;2024-01-07T07:41:45;5.90;99.90
18868;DHT22;9563;49.240;9.088;2024-01-07T07:44:13;5.90;99.90
18868;DHT22;9563;49.240;9.088;2024-01-07T07:46:59;5.80;99.90
18868;DHT22;9563;49.240;9.088;2024-01-07T07:49:26;5.90;99.90
18868;DHT22;9563;49.240;9.088;2024-01-07T07:51:55;5.90;99.90
18868;DHT22;9563;49.240;9.088;2024-01-07T07:54:22;5.80;99.90
18868;DHT22;9563;49.240;9.088;2024-01-07T07:56:49;5.80;99.90
18868;DHT22;9563;49.240;9.088;2024-01-07T07:59:15;5.80;99.90
18868;DHT22;9563;49.240;9.088;2024-01-07T08:01:42;5.80;99.90
18868;DHT22;9563;49.240;9.088;2024-01-07T08:04:09;5.70;99.90
18868;DHT22;9563;49.240;9.088;2024-01-07T08:06:36;5.70;99.90
18868;DHT22;9563;49.240;9.088;2024-01-07T08:09:04;5.70;99.90
18868;DHT22;9563;49.240;9.088;2024-01-07T08:11:32;5.70;99.90
18868;DHT22;9563;49.240;9.088;2024-01-07T08:13:59;5.70;99.90
18868;DHT22;9563;49.240;9.088;2024-01-07T08:16:27;5.70;99.90
18868;DHT22;9563;49.240;9.088;2024-01-07T08:18:54;5.70;99.90
18868;DHT22;9563;49.240;9.088;2024-01-07T08:21:22;5.70;99.90
18868;DHT22;9563;49.240;9.088;2024-01-07T08:23:51;5.80;99.90
18868;DHT22;9563;49.240;9.088;2024-01-07T08:26:20;5.80;99.90
18868;DHT22;9563;49.240;9.088;2024-01-07T08:28:48;5.80;99.90
18868;DHT22;9563;49.240;9.088;2024-01-07T08:31:17;5.80;99.90
18868;DHT22;9563;49.240;9.088;2024-01-07T08:33:46;5.90;99.90
18868;DHT22;9563;49.240;9.088;2024-01-07T08:36:13;5.80;99.90
18868;DHT22;9563;49.240;9.088;2024-01-07T08:38:40;5.80;99.90
18868;DHT22;9563;49.240;9.088;2024-01-07T08:41:07;5.80;99.90
18868;DHT22;9563;49.240;9.088;2024-01-07T08:43:35;5.80;99.90
18868;DHT22;9563;49.240;9.088;2024-01-07T08:46:03;5.80;99.90
18868;DHT22;9563;49.240;9.088;2024-01-07T08:48:31;5.80;99.90
18868;DHT22;9563;49.240;9.088;2024-01-07T08:50:58;5.70;99.90
18868;DHT22;9563;49.240;9.088;2024-01-07T08:53:25;5.70;99.90
18868;DHT22;9563;49.240;9.088;2024-01-07T08:55:51;5.70;99.90
18868;DHT22;9563;49.240;9.088;2024-01-07T08:58:19;5.50;99.90
18868;DHT22;9563;49.240;9.088;2024-01-07T09:00:47;5.50;99.90
18868;DHT22;9563;49.240;9.088;2024-01-07T09:03:14;5.50;99.90
18868;DHT22;9563;49.240;9.088;2024-01-07T09:05:41;5.40;99.90
18868;DHT22;9563;49.240;9.088;2024-01-07T09:08:08;5.40;99.90
18868;DHT22;9563;49.240;9.088;2024-01-07T09:10:36;5.30;99.90
18868;DHT22;9563;49.240;9.088;2024-01-07T09:13:03;5.30;99.90
18868;DHT22;9563;49.240;9.088;2024-01-07T09:15:30;5.30;99.90
18868;DHT22;9563;49.240;9.088;2024-01-07T09:17:59;5.30;99.90
18868;DHT22;9563;49.240;9.088;2024-01-07T09:20:26;5.30;99.90
18868;DHT22;9563;49.240;9.088;2024-01-07T09:22:53;5.30;99.90
18868;DHT22;9563;49.240;9.088;2024-01-07T09:25:19;5.30;99.90
18868;DHT22;9563;49.240;9.088;2024-01-07T09:27:46;5.40;99.90
18868;DHT22;9563;49.240;9.088;2024-01-07T09:30:13;5.40;99.90
18868;DHT22;9563;49.240;9.088;2024-01-07T09:32:41;5.40;99.90
18868;DHT22;9563;49.240;9.088;2024-01-07T09:35:09;5.40;99.90
18868;DHT22;9563;49.240;9.088;2024-01-07T09:37:36;5.40;99.90
18868;DHT22;9563;49.240;9.088;2024-01-07T09:40:04;5.50;99.90
18868;DHT22;9563;49.240;9.088;2024-01-07T09:42:32;5.40;99.90
18868;DHT22;9563;49.240;9.088;2024-01-07T09:45:01;5.40;99.90
18868;DHT22;9563;49.240;9.088;2024-01-07T09:47:29;5.40;99.90
18868;DHT22;9563;49.240;9.088;2024-01-07T09:49:56;5.30;99.90
18868;DHT22;9563;49.240;9.088;2024-01-07T09:52:25;5.40;99.90
18868;DHT22;9563;49.240;9.088;2024-01-07T09:54:58;5.30;99.90
18868;DHT22;9563;49.240;9.088;2024-01-07T09:57:25;5.40;99.90
18868;DHT22;9563;49.240;9.088;2024-01-07T09:59:52;5.30;99.90
18868;DHT22;9563;49.240;9.088;2024-01-07T10:02:20;5.20;99.90
18868;DHT22;9563;49.240;9.088;2024-01-07T10:04:47;5.20;99.90
18868;DHT22;9563;49.240;9.088;2024-01-07T10:07:15;5.40;99.90
18868;DHT22;9563;49.240;9.088;2024-01-07T10:09:43;5.50;99.90
18868;DHT22;9563;49.240;9.088;2024-01-07T10:12:10;5.70;99.90
18868;DHT22;9563;49.240;9.088;2024-01-07T10:14:38;5.70;99.90
18868;DHT22;9563;49.240;9.088;2024-01-07T10:17:14;5.80;99.90
18868;DHT22;9563;49.240;9.088;2024-01-07T10:19:43;5.70;99.90
18868;DHT22;9563;49.240;9.088;2024-01-07T10:22:12;5.70;99.90
18868;DHT22;9563;49.240;9.088;2024-01-07T10:24:40;5.70;99.90
18868;DHT22;9563;49.240;9.088;2024-01-07T10:27:09;5.80;99.90
18868;DHT22;9563;49.240;9.088;2024-01-07T10:29:36;5.70;99.90
18868;DHT22;9563;49.240;9.088;2024-01-07T10:32:04;5.60;99.90
18868;DHT22;9563;49.240;9.088;2024-01-07T10:34:32;5.50;99.90
18868;DHT22;9563;49.240;9.088;2024-01-07T10:37:00;5.40;99.90
18868;DHT22;9563;49.240;9.088;2024-01-07T10:39:28;5.40;99.90
18868;DHT22;9563;49.240;9.088;2024-01-07T10:41:56;5.40;99.90
18868;DHT22;9563;49.240;9.088;2024-01-07T10:44:27;5.40;99.90
18868;DHT22;9563;49.240;9.088;2024-01-07T10:46:54;5.40;99.90
18868;DHT22;9563;49.240;9.088;2024-01-07T10:49:23;5.40;99.90
18868;DHT22;9563;49.240;9.088;2024-01-07T10:51:58;5.50;99.90
18868;DHT22;9563;49.240;9.088;2024-01-07T10:54:29;5.50;99.90
18868;DHT22;9563;49.240;9.088;2024-01-07T10:56:59;5.30;99.90
18868;DHT22;9563;49.240;9.088;2024-01-07T10:59:29;5.30;99.90
18868;DHT22;9563;49.240;9.088;2024-01-07T11:01:57;5.20;99.90
18868;DHT22;9563;49.240;9.088;2024-01-07T11:04:30;5.20;99.90
18868;DHT22;9563;49.240;9.088;2024-01-07T11:07:05;5.20;99.90
18868;DHT22;9563;49.240;9.088;2024-01-07T11:09:39;5.10;99.90
18868;DHT22;9563;49.240;9.088;2024-01-07T11:12:06;5.10;99.90
18868;DHT22;9563;49.240;9.088;2024-01-07T11:14:36;5.10;99.90
18868;DHT22;9563;49.240;9.088;2024-01-07T11:17:05;5.00;99.90
18868;DHT22;9563;49.240;9.088;2024-01-07T11:19:32;5.00;99.90
18868;DHT22;9563;49.240;9.088;2024-01-07T11:22:21;5.00;99.90
18868;DHT22;9563;49.240;9.088;2024-01-07T11:24:50;4.90;99.90
18868;DHT22;9563;49.240;9.088;2024-01-07T11:27:17;4.90;99.90
18868;DHT22;9563;49.240;9.088;2024-01-07T11:29:53;4.90;99.90
18868;DHT22;9563;49.240;9.088;2024-01-07T11:32:22;4.90;99.90
18868;DHT22;9563;49.240;9.088;2024-01-07T11:34:50;4.90;99.90
18868;DHT22;9563;49.240;9.088;2024-01-07T11:37:19;5.00;99.90
18868;DHT22;9563;49.240;9.088;2024-01-07T11:39:48;5.00;99.90
18868;DHT22;9563;49.240;9.088;2024-01-07T11:42:15;5.00;99.90
18868;DHT22;9563;49.240;9.088;2024-01-07T11:44:47;4.90;99.90
18868;DHT22;9563;49.240;9.088;2024-01-07T11:47:15;4.90;99.90
18868;DHT22;9563;49.240;9.088;2024-01-07T11:49:43;4.90;99.90
18868;DHT22;9563;49.240;9.088;2024-01-07T11:52:10;4.80;99.90
18868;DHT22;9563;49.240;9.088;2024-01-07T11:54:37;4.80;99.90
18868;DHT22;9563;49.240;9.088;2024-01-07T11:57:04;4.70;99.90
18868;DHT22;9563;49.240;9.088;2024-01-07T11:59:31;4.60;99.90
18868;DHT22;9563;49.240;9.088;2024-01-07T12:02:01;4.60;99.90
18868;DHT22;9563;49.240;9.088;2024-01-07T12:04:29;4.50;99.90
18868;DHT22;9563;49.240;9.088;2024-01-07T12:06:57;4.50;99.90
18868;DHT22;9563;49.240;9.088;2024-01-07T12:09:24;4.30;99.90
18868;DHT22;9563;49.240;9.088;2024-01-07T12:11:51;4.30;99.90
18868;DHT22;9563;49.240;9.088;2024-01-07T12:14:19;4.30;99.90
18868;DHT22;9563;49.240;9.088;2024-01-07T12:16:46;4.30;99.90
18868;DHT22;9563;49.240;9.088;2024-01-07T12:19:15;4.20;99.90
18868;DHT22;9563;49.240;9.088;2024-01-07T12:21:41;4.20;99.90
18868;DHT22;9563;49.240;9.088;2024-01-07T12:24:08;4.20;99.90
18868;DHT22;9563;49.240;9.088;2024-01-07T12:26:35;4.10;99.90
18868;DHT22;9563;49.240;9.088;2024-01-07T12:29:03;4.00;99.90
18868;DHT22;9563;49.240;9.088;2024-01-07T12:31:33;4.00;99.90
18868;DHT22;9563;49.240;9.088;2024-01-07T12:34:02;4.10;99.90
18868;DHT22;9563;49.240;9.088;2024-01-07T12:36:31;4.10;99.90
18868;DHT22;9563;49.240;9.088;2024-01-07T12:38:59;4.10;99.90
18868;DHT22;9563;49.240;9.088;2024-01-07T12:41:25;4.10;99.90
18868;DHT22;9563;49.240;9.088;2024-01-07T12:43:52;4.20;99.90
18868;DHT22;9563;49.240;9.088;2024-01-07T12:46:20;4.10;99.90
18868;DHT22;9563;49.240;9.088;2024-01-07T12:48:46;4.10;99.90
18868;DHT22;9563;49.240;9.088;2024-01-07T12:51:14;4.20;99.90
18868;DHT22;9563;49.240;9.088;2024-01-07T12:53:42;4.10;99.90
18868;DHT22;9563;49.240;9.088;2024-01-07T12:56:10;4.00;99.90
18868;DHT22;9563;49.240;9.088;2024-01-07T12:58:37;4.00;99.90
18868;DHT22;9563;49.240;9.088;2024-01-07T13:01:04;4.00;99.90
18868;DHT22;9563;49.240;9.088;2024-01-07T13:03:31;4.00;99.90
18868;DHT22;9563;49.240;9.088;2024-01-07T13:05:59;4.00;99.90
18868;DHT22;9563;49.240;9.088;2024-01-07T13:08:27;4.00;99.90
18868;DHT22;9563;49.240;9.088;2024-01-07T13:10:55;3.90;99.90
18868;DHT22;9563;49.240;9.088;2024-01-07T13:13:24;3.80;99.90
18868;DHT22;9563;49.240;9.088;2024-01-07T13:15:51;3.80;99.90
18868;DHT22;9563;49.240;9.088;2024-01-07T13:18:18;3.70;99.90
18868;DHT22;9563;49.240;9.088;2024-01-07T13:20:46;3.80;99.90
18868;DHT22;9563;49.240;9.088;2024-01-07T13:23:13;3.90;99.90
18868;DHT22;9563;49.240;9.088;2024-01-07T13:25:40;3.90;99.90
18868;DHT22;9563;49.240;9.088;2024-01-07T13:28:08;3.90;99.90
18868;DHT22;9563;49.240;9.088;2024-01-07T13:30:37;3.90;99.90
18868;DHT22;9563;49.240;9.088;2024-01-07T13:33:04;3.80;99.90
18868;DHT22;9563;49.240;9.088;2024-01-07T13:35:31;3.80;99.90
18868;DHT22;9563;49.240;9.088;2024-01-07T13:37:58;3.80;99.90
18868;DHT22;9563;49.240;9.088;2024-01-07T13:40:25;3.80;99.90
18868;DHT22;9563;49.240;9.088;2024-01-07T13:42:52;3.80;99.90
18868;DHT22;9563;49.240;9.088;2024-01-07T13:45:21;3.70;99.90
18868;DHT22;9563;49.240;9.088;2024-01-07T13:47:48;3.70;99.90
18868;DHT22;9563;49.240;9.088;2024-01-07T13:50:15;3.60;99.90
18868;DHT22;9563;49.240;9.088;2024-01-07T13:52:43;3.60;99.90
18868;DHT22;9563;49.240;9.088;2024-01-07T13:55:10;3.60;99.90
18868;DHT22;9563;49.240;9.088;2024-01-07T13:57:37;3.50;99.90
18868;DHT22;9563;49.240;9.088;2024-01-07T14:00:07;3.40;99.90
18868;DHT22;9563;49.240;9.088;2024-01-07T14:02:37;3.40;99.90
18868;DHT22;9563;49.240;9.088;2024-01-07T14:05:04;3.50;99.90
18868;DHT22;9563;49.240;9.088;2024-01-07T14:07:34;3.40;99.90
18868;DHT22;9563;49.240;9.088;2024-01-07T14:10:01;3.50;99.90
18868;DHT22;9563;49.240;9.088;2024-01-07T14:12:29;3.40;99.90
18868;DHT22;9563;49.240;9.088;2024-01-07T14:14:56;3.30;99.90
18868;DHT22;9563;49.240;9.088;2024-01-07T14:17:24;3.30;99.90
18868;DHT22;9563;49.240;9.088;2024-01-07T14:19:52;3.30;99.90
18868;DHT22;9563;49.240;9.088;2024-01-07T14:22:20;3.20;99.90
18868;DHT22;9563;49.240;9.088;2024-01-07T14:24:47;3.20;99.90
18868;DHT22;9563;49.240;9.088;2024-01-07T14:27:14;3.20;99.90
18868;DHT22;9563;49.240;9.088;2024-01-07T14:29:41;3.20;99.90
18868;DHT22;9563;49.240;9.088;2024-01-07T14:32:08;3.20;99.90
18868;DHT22;9563;49.240;9.088;2024-01-07T14:34:38;3.20;99.90
18868;DHT22;9563;49.240;9.088;2024-01-07T14:37:07;3.20;99.90
18868;DHT22;9563;49.240;9.088;2024-01-07T14:39:35;3.20;99.90
18868;DHT22;9563;49.240;9.088;2024-01-07T14:42:02;3.20;99.90
18868;DHT22;9563;49.240;9.088;2024-01-07T14:44:29;3.10;99.90
18868;DHT22;9563;49.240;9.088;2024-01-07T14:46:56;3.10;99.90
18868;DHT22;9563;49.240;9.088;2024-01-07T14:49:23;3.00;99.90
18868;DHT22;9563;49.240;9.088;2024-01-07T14:51:50;3.00;99.90
18868;DHT22;9563;49.240;9.088;2024-01-07T14:54:19;2.90;99.90
18868;DHT22;9563;49.240;9.088;2024-01-07T14:56:47;2.90;99.90
18868;DHT22;9563;49.240;9.088;2024-01-07T14:59:15;3.00;99.90
18868;DHT22;9563;49.240;9.088;2024-01-07T15:01:42;2.90;99.90
18868;DHT22;9563;49.240;9.088;2024-01-07T15:04:10;2.90;99.90
18868;DHT22;9563;49.240;9.088;2024-01-07T15:06:41;3.00;99.90
18868;DHT22;9563;49.240;9.088;2024-01-07T15:09:08;3.00;99.90
18868;DHT22;9563;49.240;9.088;2024-01-07T15:11:36;2.90;99.90
18868;DHT22;9563;49.240;9.088;2024-01-07T15:14:07;2.90;99.90
18868;DHT22;9563;49.240;9.088;2024-01-07T15:16:35;2.90;99.90
18868;DHT22;9563;49.240;9.088;2024-01-07T15:19:02;2.80;99.90
18868;DHT22;9563;49.240;9.088;2024-01-07T15:21:29;2.80;99.90
18868;DHT22;9563;49.240;9.088;2024-01-07T15:23:56;2.80;99.90
18868;DHT22;9563;49.240;9.088;2024-01-07T15:26:24;2.90;99.90
18868;DHT22;9563;49.240;9.088;2024-01-07T15:28:52;2.80;99.90
18868;DHT22;9563;49.240;9.088;2024-01-07T15:31:19;2.80;99.90
18868;DHT22;9563;49.240;9.088;2024-01-07T15:33:46;2.80;99.90
18868;DHT22;9563;49.240;9.088;2024-01-07T15:36:13;2.80;99.90
18868;DHT22;9563;49.240;9.088;2024-01-07T15:38:40;2.80;99.90
18868;DHT22;9563;49.240;9.088;2024-01-07T15:41:07;2.80;99.90
18868;DHT22;9563;49.240;9.088;2024-01-07T15:43:34;2.70;99.90
18868;DHT22;9563;49.240;9.088;2024-01-07T15:46:04;2.70;99.90
18868;DHT22;9563;49.240;9.088;2024-01-07T15:48:31;2.60;99.90
18868;DHT22;9563;49.240;9.088;2024-01-07T15:50:58;2.60;99.90
18868;DHT22;9563;49.240;9.088;2024-01-07T15:53:25;2.60;99.90
18868;DHT22;9563;49.240;9.088;2024-01-07T15:55:59;2.50;99.90
18868;DHT22;9563;49.240;9.088;2024-01-07T15:58:28;2.60;99.90
18868;DHT22;9563;49.240;9.088;2024-01-07T16:00:59;2.50;99.90
18868;DHT22;9563;49.240;9.088;2024-01-07T16:03:30;2.40;99.90
18868;DHT22;9563;49.240;9.088;2024-01-07T16:05:58;2.40;99.90
18868;DHT22;9563;49.240;9.088;2024-01-07T16:08:26;2.40;99.90
18868;DHT22;9563;49.240;9.088;2024-01-07T16:10:54;2.40;99.90
18868;DHT22;9563;49.240;9.088;2024-01-07T16:13:20;2.40;99.90
18868;DHT22;9563;49.240;9.088;2024-01-07T16:15:47;2.30;99.90
18868;DHT22;9563;49.240;9.088;2024-01-07T16:18:14;2.30;99.90
18868;DHT22;9563;49.240;9.088;2024-01-07T16:20:43;2.30;99.90
18868;DHT22;9563;49.240;9.088;2024-01-07T16:23:10;2.30;99.90
18868;DHT22;9563;49.240;9.088;2024-01-07T16:25:37;2.30;99.90
18868;DHT22;9563;49.240;9.088;2024-01-07T16:28:04;2.30;99.90
18868;DHT22;9563;49.240;9.088;2024-01-07T16:30:32;2.30;99.90
18868;DHT22;9563;49.240;9.088;2024-01-07T16:32:59;2.20;99.90
18868;DHT22;9563;49.240;9.088;2024-01-07T16:35:26;2.20;99.90
18868;DHT22;9563;49.240;9.088;2024-01-07T16:37:56;2.20;99.90
18868;DHT22;9563;49.240;9.088;2024-01-07T16:40:23;2.10;99.90
18868;DHT22;9563;49.240;9.088;2024-01-07T16:42:50;2.10;99.90
18868;DHT22;9563;49.240;9.088;2024-01-07T16:45:17;2.10;99.90
18868;DHT22;9563;49.240;9.088;2024-01-07T16:47:45;2.10;99.90
18868;DHT22;9563;49.240;9.088;2024-01-07T16:50:12;2.00;99.90
18868;DHT22;9563;49.240;9.088;2024-01-07T16:52:43;2.10;99.90
18868;DHT22;9563;49.240;9.088;2024-01-07T16:55:12;2.10;99.90
18868;DHT22;9563;49.240;9.088;2024-01-07T16:57:39;2.10;99.90
18868;DHT22;9563;49.240;9.088;2024-01-07T17:00:07;1.90;99.90
18868;DHT22;9563;49.240;9.088;2024-01-07T17:02:35;1.90;99.90
18868;DHT22;9563;49.240;9.088;2024-01-07T17:05:02;1.90;99.90
18868;DHT22;9563;49.240;9.088;2024-01-07T17:07:29;1.90;99.90
18868;DHT22;9563;49.240;9.088;2024-01-07T17:09:56;1.90;99.90
18868;DHT22;9563;49.240;9.088;2024-01-07T17:12:24;1.90;99.90
18868;DHT22;9563;49.240;9.088;2024-01-07T17:14:51;1.80;99.90
18868;DHT22;9563;49.240;9.088;2024-01-07T17:17:18;1.80;99.90
18868;DHT22;9563;49.240;9.088;2024-01-07T17:19:46;1.90;99.90
18868;DHT22;9563;49.240;9.088;2024-01-07T17:22:13;1.90;99.90
18868;DHT22;9563;49.240;9.088;2024-01-07T17:24:41;1.70;99.90
18868;DHT22;9563;49.240;9.088;2024-01-07T17:27:08;1.80;99.90
18868;DHT22;9563;49.240;9.088;2024-01-07T17:29:36;1.70;99.90
18868;DHT22;9563;49.240;9.088;2024-01-07T17:32:04;1.70;99.90
18868;DHT22;9563;49.240;9.088;2024-01-07T17:34:32;1.70;99.90
18868;DHT22;9563;49.240;9.088;2024-01-07T17:36:59;1.60;99.90
18868;DHT22;9563;49.240;9.088;2024-01-07T17:39:26;1.60;99.90
18868;DHT22;9563;49.240;9.088;2024-01-07T17:41:53;1.50;99.90
18868;DHT22;9563;49.240;9.088;2024-01-07T17:44:19;1.50;99.90
18868;DHT22;9563;49.240;9.088;2024-01-07T17:46:47;1.60;99.90
18868;DHT22;9563;49.240;9.088;2024-01-07T17:49:15;1.60;99.90
18868;DHT22;9563;49.240;9.088;2024-01-07T17:51:42;1.50;99.90
18868;DHT22;9563;49.240;9.088;2024-01-07T17:54:10;1.50;99.90
18868;DHT22;9563;49.240;9.088;2024-01-07T17:56:37;1.40;99.90
18868;DHT22;9563;49.240;9.088;2024-01-07T17:59:04;1.30;99.90
18868;DHT22;9563;49.240;9.088;2024-01-07T18:01:33;1.40;99.90
18868;DHT22;9563;49.240;9.088;2024-01-07T18:04:02;1.30;99.90
18868;DHT22;9563;49.240;9.088;2024-01-07T18:06:29;1.40;99.90
18868;DHT22;9563;49.240;9.088;2024-01-07T18:08:56;1.40;99.90
18868;DHT22;9563;49.240;9.088;2024-01-07T18:11:23;1.40;99.90
18868;DHT22;9563;49.240;9.088;2024-01-07T18:13:50;1.40;99.90
18868;DHT22;9563;49.240;9.088;2024-01-07T18:16:17;1.40;99.90
18868;DHT22;9563;49.240;9.088;2024-01-07T18:18:44;1.30;99.90
18868;DHT22;9563;49.240;9.088;2024-01-07T18:21:14;1.30;99.90
18868;DHT22;9563;49.240;9.088;2024-01-07T18:23:41;1.30;99.90
18868;DHT22;9563;49.240;9.088;2024-01-07T18:26:08;1.30;99.90
18868;DHT22;9563;49.240;9.088;2024-01-07T18:28:36;1.30;99.90
18868;DHT22;9563;49.240;9.088;2024-01-07T18:31:03;1.20;99.90
18868;DHT22;9563;49.240;9.088;2024-01-07T18:33:31;1.30;99.90
18868;DHT22;9563;49.240;9.088;2024-01-07T18:35:58;1.10;99.90
18868;DHT22;9563;49.240;9.088;2024-01-07T18:38:28;1.20;99.90
18868;DHT22;9563;49.240;9.088;2024-01-07T18:40:55;1.20;99.90
18868;DHT22;9563;49.240;9.088;2024-01-07T18:43:22;1.20;99.90
18868;DHT22;9563;49.240;9.088;2024-01-07T18:45:49;1.20;99.90
18868;DHT22;9563;49.240;9.088;2024-01-07T18:48:16;1.10;99.90
18868;DHT22;9563;49.240;9.088;2024-01-07T18:50:43;1.10;99.90
18868;DHT22;9563;49.240;9.088;2024-01-07T18:53:10;1.00;99.90
18868;DHT22;9563;49.240;9.088;2024-01-07T18:55:39;1.00;99.90
18868;DHT22;9563;49.240;9.088;2024-01-07T18:58:09;1.10;99.90
18868;DHT22;9563;49.240;9.088;2024-01-07T19:00:36;1.10;99.90
18868;DHT22;9563;49.240;9.088;2024-01-07T19:03:03;1.00;99.90
18868;DHT22;9563;49.240;9.088;2024-01-07T19:05:30;1.00;99.90
18868;DHT22;9563;49.240;9.088;2024-01-07T19:07:57;1.00;99.90
18868;DHT22;9563;49.240;9.088;2024-01-07T19:10:25;1.00;99.90
18868;DHT22;9563;49.240;9.088;2024-01-07T19:12:53;0.90;99.90
18868;DHT22;9563;49.240;9.088;2024-01-07T19:15:21;0.80;99.90
18868;DHT22;9563;49.240;9.088;2024-01-07T19:17:50;0.80;99.90
18868;DHT22;9563;49.240;9.088;2024-01-07T19:20:17;0.80;99.90
18868;DHT22;9563;49.240;9.088;2024-01-07T19:22:45;0.90;99.90
18868;DHT22;9563;49.240;9.088;2024-01-07T19:25:13;0.80;99.90
18868;DHT22;9563;49.240;9.088;2024-01-07T19:27:40;0.80;99.90
18868;DHT22;9563;49.240;9.088;2024-01-07T19:30:09;0.80;99.90
18868;DHT22;9563;49.240;9.088;2024-01-07T19:32:36;0.80;99.90
18868;DHT22;9563;49.240;9.088;2024-01-07T19:35:04;0.80;99.90
18868;DHT22;9563;49.240;9.088;2024-01-07T19:37:32;0.80;99.90
18868;DHT22;9563;49.240;9.088;2024-01-07T19:40:01;0.80;99.90
18868;DHT22;9563;49.240;9.088;2024-01-07T19:42:28;0.80;99.90
18868;DHT22;9563;49.240;9.088;2024-01-07T19:44:56;0.80;99.90
18868;DHT22;9563;49.240;9.088;2024-01-07T19:47:24;0.80;99.90
18868;DHT22;9563;49.240;9.088;2024-01-07T19:49:52;0.80;99.90
18868;DHT22;9563;49.240;9.088;2024-01-07T19:52:19;0.70;99.90
18868;DHT22;9563;49.240;9.088;2024-01-07T19:54:46;0.80;99.90
18868;DHT22;9563;49.240;9.088;2024-01-07T19:57:39;0.70;99.90
18868;DHT22;9563;49.240;9.088;2024-01-07T20:00:27;0.70;99.90
18868;DHT22;9563;49.240;9.088;2024-01-07T20:02:55;0.60;99.90
18868;DHT22;9563;49.240;9.088;2024-01-07T20:05:22;0.60;99.90
18868;DHT22;9563;49.240;9.088;2024-01-07T20:07:50;0.60;99.90
18868;DHT22;9563;49.240;9.088;2024-01-07T20:10:17;0.60;99.90
18868;DHT22;9563;49.240;9.088;2024-01-07T20:12:44;0.70;99.90
18868;DHT22;9563;49.240;9.088;2024-01-07T20:15:11;0.70;99.90
18868;DHT22;9563;49.240;9.088;2024-01-07T20:17:38;0.80;99.90
18868;DHT22;9563;49.240;9.088;2024-01-07T20:20:08;0.80;99.90
18868;DHT22;9563;49.240;9.088;2024-01-07T20:22:36;0.80;99.90
18868;DHT22;9563;49.240;9.088;2024-01-07T20:25:03;0.80;99.90
18868;DHT22;9563;49.240;9.088;2024-01-07T20:27:33;0.80;99.90
18868;DHT22;9563;49.240;9.088;2024-01-07T20:29:59;0.80;99.90
18868;DHT22;9563;49.240;9.088;2024-01-07T20:32:26;0.80;99.90
18868;DHT22;9563;49.240;9.088;2024-01-07T20:34:53;0.80;99.90
18868;DHT22;9563;49.240;9.088;2024-01-07T20:37:22;0.80;99.90
18868;DHT22;9563;49.240;9.088;2024-01-07T20:39:49;0.80;99.90
18868;DHT22;9563;49.240;9.088;2024-01-07T20:42:16;0.80;99.90
18868;DHT22;9563;49.240;9.088;2024-01-07T20:44:43;0.70;99.90
18868;DHT22;9563;49.240;9.088;2024-01-07T20:47:10;0.60;99.90
18868;DHT22;9563;49.240;9.088;2024-01-07T20:49:37;0.70;99.90
18868;DHT22;9563;49.240;9.088;2024-01-07T20:52:04;0.70;99.90
18868;DHT22;9563;49.240;9.088;2024-01-07T20:54:33;0.60;99.90
18868;DHT22;9563;49.240;9.088;2024-01-07T20:57:01;0.70;99.90
18868;DHT22;9563;49.240;9.088;2024-01-07T20:59:29;0.60;99.90
18868;DHT22;9563;49.240;9.088;2024-01-07T21:01:55;0.60;99.90
18868;DHT22;9563;49.240;9.088;2024-01-07T21:04:22;0.70;99.90
18868;DHT22;9563;49.240;9.088;2024-01-07T21:06:49;0.70;99.90